Latest Weather Observations for Coffs Harbour

IDN60801

Issued at 5:35 pm EST Friday 19 September 2014 (issued every 30 minutes, with the page automatically refreshed every 10 minutes)

About weather observations | Map of weather stations | Latest weather observations for NSW | Other Formats
Station Details ID: 059040 Name: COFFS HARBOUR MO Lat: -30.31 Lon: 153.12 Height: 5.0 m
Data from the previous 72 hours. | See also: Recent months at Coffs Harbour
Date/Time
EST
Temp
°C
App
Temp
°C
Dew
Point
Rel
Hum
%
Delta-T
°C
Wind Press
QNH
hPa
Press
MSL
hPa
Rain
since 9 am
mm
Dir
 
Spd
km/h
Gust
km/h
Spd
kts
Gust
kts
19/05:30pm 16.1 14.9 12.8 81 1.8 ESE 11 15 6 8 1018.9 - 0.2
19/05:00pm 17.7 16.4 11.4 66 3.4 ESE 9 13 5 7 1018.8 - 0.0
19/04:30pm 18.0 16.2 10.7 62 3.9 ESE 11 13 6 7 1018.6 - 0.0
19/04:00pm 18.3 16.5 10.7 61 4.1 ESE 11 17 6 9 1018.3 - 0.0
19/03:30pm 18.4 16.1 10.6 60 4.2 E 13 19 7 10 1018.0 - 0.0
19/03:00pm 18.4 16.1 10.6 60 4.2 E 13 19 7 10 1017.9 1018.0 0.0
19/02:30pm 19.0 16.3 10.2 56 4.7 ESE 15 22 8 12 1018.0 - 0.0
19/02:00pm 18.6 15.9 10.2 58 4.5 ESE 15 20 8 11 1018.4 - 0.0
19/01:30pm 18.6 15.8 9.9 57 4.6 ESE 15 20 8 11 1018.7 - 0.0
19/01:00pm 18.9 16.5 10.1 56 4.7 SE 13 19 7 10 1019.2 - 0.0
19/12:30pm 18.1 15.5 9.3 56 4.6 SE 13 19 7 10 1019.8 - 0.0
19/12:00pm 18.1 15.5 9.5 57 4.5 SE 13 19 7 10 1020.3 1020.4 0.0
19/11:30am 18.3 15.2 8.8 54 4.9 SSE 15 19 8 10 1020.5 - 0.0
19/11:00am 18.6 15.2 9.2 54 4.9 SSE 17 20 9 11 1020.9 - 0.0
19/10:30am 16.9 13.4 8.9 59 4.1 SE 17 19 9 10 1021.3 - 0.0
19/10:00am 17.9 14.9 7.8 51 5.1 SSE 13 19 7 10 1021.6 - 0.0
19/09:30am 18.0 14.6 7.7 51 5.2 SSE 15 19 8 10 1021.9 - 0.0
19/09:00am 15.1 11.9 6.7 57 4.1 S 13 19 7 10 1022.1 1022.2 0.0
19/08:30am 16.5 13.5 7.7 56 4.4 SW 13 17 7 9 1022.3 - 0.0
19/08:00am 15.5 13.1 8.8 64 3.4 SW 11 15 6 8 1022.3 - 0.0
19/07:30am 13.4 12.0 9.5 77 2.0 W 7 7 4 4 1022.1 - 0.0
19/07:00am 11.0 9.9 9.8 92 0.6 W 6 7 3 4 1021.9 - 0.0
19/06:30am 8.6 6.8 7.8 95 0.4 W 7 7 4 4 1021.6 - 0.0
19/06:00am 6.8 4.5 5.9 94 0.4 W 7 7 4 4 1021.2 1021.3 0.0
19/05:30am 7.1 5.2 6.7 97 0.2 W 6 7 3 4 1021.0 - 0.0
19/05:00am 6.8 4.6 6.4 97 0.2 W 7 9 4 5 1020.8 - 0.0
19/04:30am 7.5 5.4 6.6 94 0.4 W 7 9 4 5 1020.4 - 0.0
19/04:00am 7.4 5.3 6.7 95 0.3 W 7 7 4 4 1020.3 - 0.0
19/03:30am 7.4 6.2 6.5 94 0.4 W 2 7 1 4 1020.2 - 0.0
19/03:00am 7.5 5.4 6.8 95 0.3 W 7 9 4 5 1020.3 1020.4 0.0
19/02:30am 8.1 6.7 7.2 94 0.4 NW 4 7 2 4 1020.3 - 0.0
19/02:00am 8.2 6.8 7.1 93 0.5 NW 4 6 2 3 1020.6 - 0.0
19/01:30am 8.7 6.8 7.6 93 0.5 NW 7 7 4 4 1020.6 - 0.0
19/01:00am 8.9 7.0 7.6 91 0.6 NW 7 9 4 5 1020.8 - 0.0
19/12:30am 9.0 8.0 7.5 90 0.7 WNW 2 6 1 3 1020.8 - 0.0
19/12:00am 9.0 7.7 7.5 90 0.7 NW 4 9 2 5 1020.9 1021.0 0.0
 
Date/Time
EST
Temp
°C
App
Temp
°C
Dew
Point
Rel
Hum
%
Delta-T
°C
Wind Press
QNH
hPa
Press
MSL
hPa
Rain
since 9 am
mm
Dir
 
Spd
km/h
Gust
km/h
Spd
kts
Gust
kts
18/11:30pm 9.0 7.3 7.5 90 0.7 NW 6 7 3 4 1021.1 - 0.0
18/11:00pm 9.1 8.5 7.6 90 0.7 CALM 0 0 0 0 1021.2 - 0.0
18/10:30pm 9.9 8.1 8.0 88 0.9 NW 7 9 4 5 1021.1 - 0.0
18/10:00pm 10.1 8.5 7.8 86 1.1 W 6 9 3 5 1020.9 - 0.0
18/09:30pm 9.9 9.3 7.6 85 1.1 CALM 0 6 0 3 1020.7 - 0.0
18/09:00pm 10.5 10.0 7.8 83 1.3 CALM 0 0 0 0 1020.5 1020.6 0.0
18/08:30pm 11.1 9.5 8.2 82 1.4 NW 6 7 3 4 1020.5 - 0.0
18/08:00pm 11.6 9.8 8.1 79 1.7 W 7 9 4 5 1020.1 - 0.0
18/07:30pm 12.9 11.0 7.6 70 2.6 WNW 7 11 4 6 1019.7 - 0.0
18/07:00pm 13.6 11.3 7.5 66 3.0 W 9 9 5 5 1019.2 - 0.0
18/06:30pm 14.0 11.8 7.9 66 3.0 SE 9 11 5 6 1018.8 - 0.0
18/06:00pm 15.2 12.0 7.0 58 4.0 ESE 13 15 7 8 1018.0 1018.1 0.0
18/05:30pm 17.0 14.1 6.6 50 5.1 ESE 11 15 6 8 1017.8 - 0.0
18/05:00pm 18.1 14.9 5.3 43 6.2 E 11 15 6 8 1017.3 - 0.0
18/04:30pm 18.8 15.2 4.9 40 6.7 E 13 17 7 9 1016.8 - 0.0
18/04:00pm 19.5 15.4 4.2 36 7.3 ENE 15 19 8 10 1016.5 - 0.0
18/03:30pm 19.5 15.7 5.9 41 6.7 E 15 19 8 10 1016.2 - 0.0
18/03:00pm 19.8 15.1 3.2 33 7.8 E 17 22 9 12 1016.0 1016.1 0.0
18/02:30pm 19.9 15.1 2.7 32 8.0 E 17 22 9 12 1016.1 - 0.0
18/02:00pm 19.9 15.2 3.0 32 7.9 E 17 22 9 12 1016.0 - 0.0
18/01:30pm 19.8 15.0 2.5 31 8.0 E 17 20 9 11 1016.3 - 0.0
18/01:00pm 19.7 14.6 1.0 28 8.4 E 17 20 9 11 1016.6 - 0.0
18/12:30pm 20.5 14.9 1.4 28 8.7 SE 20 26 11 14 1016.5 - 0.0
18/12:00pm 20.1 14.3 -0.1 26 8.9 SE 20 26 11 14 1017.2 1017.3 0.0
18/11:30am 19.7 13.9 -0.2 26 8.7 SE 20 26 11 14 1017.7 - 0.0
18/11:00am 20.4 15.1 -0.3 25 9.1 S 17 24 9 13 1018.2 - 0.0
18/10:30am 19.9 13.2 -4.0 19 9.7 WSW 22 32 12 17 1018.5 - 0.0
18/10:00am 19.7 14.4 -0.9 25 8.9 WSW 17 28 9 15 1018.5 - 0.0
18/09:30am 19.5 13.1 0.9 29 8.3 SW 24 32 13 17 1018.6 - 0.0
18/09:00am 18.7 12.8 1.9 32 7.6 SW 22 33 12 18 1018.7 1018.8 0.0
18/08:30am 17.8 12.3 2.0 34 7.1 SW 20 30 11 16 1019.0 - 0.0
18/08:00am 17.4 13.8 4.8 43 6.0 WSW 13 17 7 9 1018.8 - 0.0
18/07:30am 16.0 15.4 7.6 57 4.2 CALM 0 6 0 3 1018.7 - 0.0
18/07:00am 13.5 13.5 9.8 78 1.9 CALM 0 0 0 0 1018.3 - 0.0
18/06:30am 10.5 8.6 6.7 77 1.8 NNW 6 9 3 5 1017.7 - 0.0
18/06:00am 8.2 7.4 6.5 89 0.8 CALM 0 0 0 0 1017.5 1017.6 0.0
18/05:30am 8.6 6.5 6.7 88 0.9 W 7 13 4 7 1017.1 - 0.0
18/05:00am 8.6 6.7 6.9 89 0.8 WSW 6 9 3 5 1016.8 - 0.0
18/04:30am 8.2 7.1 6.9 91 0.6 W 2 9 1 5 1016.3 - 0.0
18/04:00am 8.6 6.6 7.1 90 0.7 W 7 9 4 5 1016.0 - 0.0
18/03:30am 9.1 7.2 7.4 89 0.8 W 7 7 4 4 1015.8 - 0.0
18/03:00am 9.3 7.4 7.6 89 0.8 NW 7 9 4 5 1015.7 1015.8 0.0
18/02:30am 10.2 8.4 8.1 87 1.0 NNW 7 9 4 5 1015.7 - 0.0
18/02:00am 10.4 9.3 8.6 89 0.9 WNW 4 9 2 5 1015.7 - 0.0
18/01:30am 10.7 10.5 9.1 90 0.8 CALM 0 0 0 0 1015.8 - 0.0
18/01:00am 11.0 9.6 9.6 91 0.7 W 7 9 4 5 1015.6 - 0.0
18/12:30am 11.4 10.1 10.0 91 0.7 WNW 7 13 4 7 1015.7 - 0.0
18/12:00am 12.0 11.0 10.2 89 0.9 WNW 6 9 3 5 1015.7 1015.8 0.0
 
Date/Time
EST
Temp
°C
App
Temp
°C
Dew
Point
Rel
Hum
%
Delta-T
°C
Wind Press
QNH
hPa
Press
MSL
hPa
Rain
since 9 am
mm
Dir
 
Spd
km/h
Gust
km/h
Spd
kts
Gust
kts
17/11:30pm 12.5 12.7 10.4 87 1.1 CALM 0 0 0 0 1015.7 - 0.0
17/11:00pm 13.5 13.0 10.6 82 1.5 W 4 7 2 4 1015.9 - 0.0
17/10:30pm 14.0 13.2 11.2 83 1.5 W 6 7 3 4 1015.6 - 0.0
17/10:00pm 13.9 13.0 11.3 84 1.4 WNW 7 9 4 5 1015.4 - 0.0
17/09:30pm 13.8 12.8 11.0 83 1.5 NW 7 7 4 4 1015.2 - 0.0
17/09:00pm 14.0 13.1 11.2 83 1.5 WNW 7 7 4 4 1015.0 1015.1 0.0
17/08:30pm 14.2 13.4 11.2 82 1.6 W 6 9 3 5 1014.7 - 0.0
17/08:00pm 15.0 14.0 11.0 77 2.1 NW 7 7 4 4 1014.3 - 0.0
17/07:30pm 15.0 14.1 10.6 75 2.3 NW 6 7 3 4 1014.0 - 0.0
17/07:00pm 15.6 14.1 10.5 71 2.7 NW 9 11 5 6 1013.2 - 0.0
17/06:30pm 16.0 14.7 10.1 68 3.1 WSW 7 9 4 5 1013.1 - 0.0
17/06:00pm 17.1 15.8 9.9 62 3.8 N 7 9 4 5 1012.6 1012.7 0.0
17/05:30pm 18.7 16.5 9.4 54 4.9 NNE 11 13 6 7 1012.2 - 0.0
17/05:00pm 19.9 17.0 8.1 46 6.1 NE 13 19 7 10 1011.7 - 0.0
17/04:30pm 20.7 17.2 7.2 41 6.9 NE 15 20 8 11 1011.3 - 0.0
17/04:00pm 21.2 17.6 6.9 39 7.3 ENE 15 20 8 11 1010.9 - 0.0
17/03:30pm 21.2 17.3 6.9 39 7.3 ENE 17 20 9 11 1010.5 - 0.0
17/03:00pm 21.5 17.8 6.5 37 7.6 E 15 19 8 10 1010.4 1010.5 0.0
17/02:30pm 21.8 18.3 7.0 38 7.6 E 15 20 8 11 1010.3 - 0.0
17/02:00pm 21.5 17.7 5.7 35 7.9 E 15 19 8 10 1010.6 - 0.0
17/01:30pm 21.6 17.4 5.6 35 8.0 E 17 22 9 12 1010.6 - 0.0
17/01:00pm 21.5 17.2 5.1 34 8.1 ESE 17 20 9 11 1011.1 - 0.0
17/12:30pm 21.4 16.9 6.1 37 7.7 ESE 19 26 10 14 1011.4 - 0.0
17/12:00pm 21.5 17.4 6.3 37 7.7 SE 17 22 9 12 1011.9 1012.0 0.0
17/11:30am 21.4 16.9 6.1 37 7.7 SSE 19 24 10 13 1012.3 - 0.0
17/11:00am 21.3 16.6 5.9 36 7.7 SSE 20 24 11 13 1012.8 - 0.0
17/10:30am 21.3 17.7 6.8 39 7.4 S 15 22 8 12 1013.5 - 0.0
17/10:00am 21.8 17.8 5.0 33 8.3 SSW 15 20 8 11 1013.9 - 0.0
17/09:30am 21.0 16.2 4.6 34 8.0 SW 19 26 10 14 1014.2 - 0.0
17/09:00am 20.5 14.6 4.0 33 7.9 SW 24 30 13 16 1014.5 1014.6 0.0
17/08:30am 20.2 14.7 4.2 35 7.7 SW 22 30 12 16 1014.5 - 0.0
17/08:00am 19.6 16.4 5.3 39 7.0 WSW 11 17 6 9 1014.6 - 0.0
17/07:30am 17.9 15.2 9.1 56 4.6 WSW 13 19 7 10 1014.7 - 0.0
17/07:00am 14.4 13.3 10.0 75 2.3 NW 6 11 3 6 1014.5 - 0.0
17/06:30am 12.1 10.4 8.5 78 1.8 WNW 7 9 4 5 1013.8 - 0.0
17/06:00am 9.9 8.0 7.6 85 1.1 NW 7 9 4 5 1013.3 - 0.0
17/05:30am 9.4 7.4 7.3 87 1.0 NW 7 13 4 7 1013.0 - 0.0
17/05:00am 9.7 7.8 7.6 87 1.0 NW 7 9 4 5 1012.6 - 0.0
17/04:30am 9.6 6.9 7.5 87 1.0 NW 11 15 6 8 1012.3 - 0.0
17/04:00am 9.4 8.4 7.5 88 0.9 N 2 7 1 4 1011.7 - 0.0
17/03:30am 10.6 10.2 8.1 84 1.2 CALM 0 9 0 5 1011.3 - 0.0
17/03:00am 10.2 8.4 8.1 87 1.0 NNE 7 9 4 5 1011.0 1011.1 0.0
17/02:30am 10.7 8.8 7.4 80 1.6 SSW 7 9 4 5 1010.9 - 0.0
17/02:00am 11.3 9.5 8.0 80 1.6 N 7 11 4 6 1011.1 - 0.0
17/01:30am 11.8 9.7 8.1 78 1.8 SW 9 11 5 6 1011.0 - 0.0
17/01:00am 13.7 11.8 7.6 66 3.0 N 7 9 4 5 1011.2 - 0.0
17/12:30am 14.4 11.4 7.5 63 3.4 N 13 15 7 8 1011.1 - 0.0
17/12:00am 15.5 12.2 6.2 54 4.5 N 13 17 7 9 1011.2 1011.3 0.0
 
Date/Time
EST
Temp
°C
App
Temp
°C
Dew
Point
Rel
Hum
%
Delta-T
°C
Wind Press
QNH
hPa
Press
MSL
hPa
Rain
since 9 am
mm
Dir
 
Spd
km/h
Gust
km/h
Spd
kts
Gust
kts
16/11:30pm 14.5 11.9 7.9 64 3.3 N 11 13 6 7 1011.1 - 0.0
16/11:00pm 15.1 13.0 8.1 63 3.5 NW 9 13 5 7 1011.0 - 0.0
16/10:30pm 14.5 12.3 9.4 71 2.6 N 11 15 6 8 1011.0 - 0.0
16/10:00pm 14.3 12.5 9.6 73 2.4 E 9 15 5 8 1010.9 - 0.0
16/09:30pm 16.2 13.7 8.1 58 4.1 WNW 11 15 6 8 1010.4 - 0.0
16/09:00pm 15.7 12.9 11.2 74 2.4 WNW 17 19 9 10 1010.3 1010.4 0.0
16/08:30pm 16.2 14.6 12.8 80 1.9 WNW 13 15 7 8 1010.2 - 0.0
16/08:00pm 16.2 15.4 13.9 86 1.3 W 11 13 6 7 1009.8 - 0.0
16/07:30pm 17.1 16.4 15.4 90 1.0 NNW 13 17 7 9 1009.3 - 0.0
16/07:00pm 17.5 17.3 15.6 89 1.1 NNE 11 13 6 7 1008.9 - 0.0
16/06:30pm 18.5 19.3 15.8 84 1.6 N 6 7 3 4 1008.2 - 0.0
16/06:00pm 20.0 20.4 16.3 79 2.2 W 9 11 5 6 1007.5 1007.6 0.0

Other Formats:

Comma delimited format used in spreadsheet applications
http://www.bom.gov.au/fwo/IDN60801/IDN60801.94791.axf

JavaScript Object Notation format (JSON) in row-major order
http://www.bom.gov.au/fwo/IDN60801/IDN60801.94791.json